sensor_id;sensor_type;location;lat;lon;timestamp;P1;durP1;ratioP1;P2;durP2;ratioP2
9388;SDS011;4734;52.778;6.798;2024-03-29T00:01:54;4.63;;;1.30;;
9388;SDS011;4734;52.778;6.798;2024-03-29T00:04:38;3.17;;;1.10;;
9388;SDS011;4734;52.778;6.798;2024-03-29T00:07:23;1.17;;;1.05;;
9388;SDS011;4734;52.778;6.798;2024-03-29T00:10:09;3.10;;;1.30;;
9388;SDS011;4734;52.778;6.798;2024-03-29T00:12:54;2.58;;;1.20;;
9388;SDS011;4734;52.778;6.798;2024-03-29T00:15:42;1.85;;;1.20;;
9388;SDS011;4734;52.778;6.798;2024-03-29T00:18:30;1.98;;;1.35;;
9388;SDS011;4734;52.778;6.798;2024-03-29T00:21:14;4.53;;;1.25;;
9388;SDS011;4734;52.778;6.798;2024-03-29T00:23:59;5.18;;;1.05;;
9388;SDS011;4734;52.778;6.798;2024-03-29T00:26:45;2.80;;;1.15;;
9388;SDS011;4734;52.778;6.798;2024-03-29T00:29:29;1.92;;;1.20;;
9388;SDS011;4734;52.778;6.798;2024-03-29T00:32:14;1.90;;;1.05;;
9388;SDS011;4734;52.778;6.798;2024-03-29T00:34:58;2.85;;;1.02;;
9388;SDS011;4734;52.778;6.798;2024-03-29T00:37:43;2.38;;;1.10;;
9388;SDS011;4734;52.778;6.798;2024-03-29T00:40:28;5.40;;;1.30;;
9388;SDS011;4734;52.778;6.798;2024-03-29T00:43:14;2.40;;;1.25;;
9388;SDS011;4734;52.778;6.798;2024-03-29T00:45:58;6.00;;;1.23;;
9388;SDS011;4734;52.778;6.798;2024-03-29T00:48:43;2.78;;;1.05;;
9388;SDS011;4734;52.778;6.798;2024-03-29T00:51:28;1.73;;;0.90;;
9388;SDS011;4734;52.778;6.798;2024-03-29T00:54:12;2.30;;;1.10;;
9388;SDS011;4734;52.778;6.798;2024-03-29T00:56:57;1.40;;;1.13;;
9388;SDS011;4734;52.778;6.798;2024-03-29T00:59:43;2.33;;;0.98;;
9388;SDS011;4734;52.778;6.798;2024-03-29T01:02:28;2.83;;;1.02;;
9388;SDS011;4734;52.778;6.798;2024-03-29T01:05:13;3.67;;;1.15;;
9388;SDS011;4734;52.778;6.798;2024-03-29T01:07:58;1.65;;;1.00;;
9388;SDS011;4734;52.778;6.798;2024-03-29T01:10:42;1.63;;;1.13;;
9388;SDS011;4734;52.778;6.798;2024-03-29T01:13:27;1.70;;;1.20;;
9388;SDS011;4734;52.778;6.798;2024-03-29T01:16:13;2.10;;;1.33;;
9388;SDS011;4734;52.778;6.798;2024-03-29T01:18:58;2.53;;;1.23;;
9388;SDS011;4734;52.778;6.798;2024-03-29T01:21:43;2.50;;;1.40;;
9388;SDS011;4734;52.778;6.798;2024-03-29T01:24:27;2.60;;;1.07;;
9388;SDS011;4734;52.778;6.798;2024-03-29T01:27:12;2.00;;;1.10;;
9388;SDS011;4734;52.778;6.798;2024-03-29T01:29:57;2.43;;;0.97;;
9388;SDS011;4734;52.778;6.798;2024-03-29T01:32:43;2.97;;;1.27;;
9388;SDS011;4734;52.778;6.798;2024-03-29T01:35:27;3.00;;;1.10;;
9388;SDS011;4734;52.778;6.798;2024-03-29T01:38:12;4.82;;;1.23;;
9388;SDS011;4734;52.778;6.798;2024-03-29T01:40:58;3.53;;;1.10;;
9388;SDS011;4734;52.778;6.798;2024-03-29T01:43:43;2.87;;;1.00;;
9388;SDS011;4734;52.778;6.798;2024-03-29T01:46:28;2.00;;;1.10;;
9388;SDS011;4734;52.778;6.798;2024-03-29T01:49:15;3.43;;;1.30;;
9388;SDS011;4734;52.778;6.798;2024-03-29T01:52:03;3.03;;;1.20;;
9388;SDS011;4734;52.778;6.798;2024-03-29T01:54:49;1.70;;;1.17;;
9388;SDS011;4734;52.778;6.798;2024-03-29T01:57:35;4.57;;;1.13;;
9388;SDS011;4734;52.778;6.798;2024-03-29T02:00:21;3.75;;;1.20;;
9388;SDS011;4734;52.778;6.798;2024-03-29T02:03:06;1.63;;;1.17;;
9388;SDS011;4734;52.778;6.798;2024-03-29T02:05:54;2.05;;;1.05;;
9388;SDS011;4734;52.778;6.798;2024-03-29T02:08:41;3.87;;;1.10;;
9388;SDS011;4734;52.778;6.798;2024-03-29T02:11:27;1.70;;;1.07;;
9388;SDS011;4734;52.778;6.798;2024-03-29T02:14:12;2.00;;;1.07;;
9388;SDS011;4734;52.778;6.798;2024-03-29T02:16:58;2.70;;;1.00;;
9388;SDS011;4734;52.778;6.798;2024-03-29T02:19:43;2.10;;;1.08;;
9388;SDS011;4734;52.778;6.798;2024-03-29T02:22:30;4.78;;;1.25;;
9388;SDS011;4734;52.778;6.798;2024-03-29T02:25:21;2.25;;;0.90;;
9388;SDS011;4734;52.778;6.798;2024-03-29T02:28:07;3.13;;;1.40;;
9388;SDS011;4734;52.778;6.798;2024-03-29T02:30:52;2.37;;;1.03;;
9388;SDS011;4734;52.778;6.798;2024-03-29T02:33:38;7.63;;;1.20;;
9388;SDS011;4734;52.778;6.798;2024-03-29T02:36:23;3.67;;;1.05;;
9388;SDS011;4734;52.778;6.798;2024-03-29T02:39:09;2.50;;;1.10;;
9388;SDS011;4734;52.778;6.798;2024-03-29T02:41:56;2.67;;;0.90;;
9388;SDS011;4734;52.778;6.798;2024-03-29T02:44:41;2.10;;;1.17;;
9388;SDS011;4734;52.778;6.798;2024-03-29T02:47:27;3.67;;;1.10;;
9388;SDS011;4734;52.778;6.798;2024-03-29T02:50:12;2.37;;;0.90;;
9388;SDS011;4734;52.778;6.798;2024-03-29T02:53:00;2.60;;;1.20;;
9388;SDS011;4734;52.778;6.798;2024-03-29T02:55:45;2.83;;;1.20;;
9388;SDS011;4734;52.778;6.798;2024-03-29T02:58:32;1.75;;;1.02;;
9388;SDS011;4734;52.778;6.798;2024-03-29T03:01:17;3.30;;;1.00;;
9388;SDS011;4734;52.778;6.798;2024-03-29T03:04:02;1.33;;;1.03;;
9388;SDS011;4734;52.778;6.798;2024-03-29T03:06:48;3.60;;;1.00;;
9388;SDS011;4734;52.778;6.798;2024-03-29T03:09:33;1.87;;;0.93;;
9388;SDS011;4734;52.778;6.798;2024-03-29T03:12:40;1.20;;;0.95;;
9388;SDS011;4734;52.778;6.798;2024-03-29T03:15:27;2.93;;;1.40;;
9388;SDS011;4734;52.778;6.798;2024-03-29T03:18:13;2.83;;;1.20;;
9388;SDS011;4734;52.778;6.798;2024-03-29T03:20:59;3.25;;;1.17;;
9388;SDS011;4734;52.778;6.798;2024-03-29T03:23:43;1.80;;;1.10;;
9388;SDS011;4734;52.778;6.798;2024-03-29T03:26:29;1.00;;;0.90;;
9388;SDS011;4734;52.778;6.798;2024-03-29T03:29:14;2.00;;;1.25;;
9388;SDS011;4734;52.778;6.798;2024-03-29T03:32:01;3.03;;;1.33;;
9388;SDS011;4734;52.778;6.798;2024-03-29T03:34:46;1.80;;;1.07;;
9388;SDS011;4734;52.778;6.798;2024-03-29T03:37:31;0.90;;;0.90;;
9388;SDS011;4734;52.778;6.798;2024-03-29T03:40:16;2.07;;;1.27;;
9388;SDS011;4734;52.778;6.798;2024-03-29T03:43:02;3.65;;;1.33;;
9388;SDS011;4734;52.778;6.798;2024-03-29T03:45:46;1.27;;;0.82;;
9388;SDS011;4734;52.778;6.798;2024-03-29T03:48:33;2.40;;;1.20;;
9388;SDS011;4734;52.778;6.798;2024-03-29T03:51:18;2.53;;;0.90;;
9388;SDS011;4734;52.778;6.798;2024-03-29T03:54:04;1.67;;;1.15;;
9388;SDS011;4734;52.778;6.798;2024-03-29T03:56:48;3.83;;;1.10;;
9388;SDS011;4734;52.778;6.798;2024-03-29T03:59:34;1.63;;;1.03;;
9388;SDS011;4734;52.778;6.798;2024-03-29T04:02:18;2.60;;;1.30;;
9388;SDS011;4734;52.778;6.798;2024-03-29T04:05:06;5.90;;;1.20;;
9388;SDS011;4734;52.778;6.798;2024-03-29T04:07:51;1.83;;;1.27;;
9388;SDS011;4734;52.778;6.798;2024-03-29T04:10:37;0.80;;;0.80;;
9388;SDS011;4734;52.778;6.798;2024-03-29T04:13:22;1.97;;;0.93;;
9388;SDS011;4734;52.778;6.798;2024-03-29T04:16:08;1.87;;;1.00;;
9388;SDS011;4734;52.778;6.798;2024-03-29T04:18:52;2.37;;;0.83;;
9388;SDS011;4734;52.778;6.798;2024-03-29T04:21:40;2.75;;;1.10;;
9388;SDS011;4734;52.778;6.798;2024-03-29T04:24:24;1.63;;;1.00;;
9388;SDS011;4734;52.778;6.798;2024-03-29T04:27:10;1.83;;;1.10;;
9388;SDS011;4734;52.778;6.798;2024-03-29T04:29:54;1.83;;;1.00;;
9388;SDS011;4734;52.778;6.798;2024-03-29T04:32:40;1.40;;;0.88;;
9388;SDS011;4734;52.778;6.798;2024-03-29T04:35:25;2.17;;;0.95;;
9388;SDS011;4734;52.778;6.798;2024-03-29T04:38:11;2.23;;;1.50;;
9388;SDS011;4734;52.778;6.798;2024-03-29T04:40:58;3.03;;;1.25;;
9388;SDS011;4734;52.778;6.798;2024-03-29T04:43:44;1.87;;;1.30;;
9388;SDS011;4734;52.778;6.798;2024-03-29T04:46:29;3.60;;;1.50;;
9388;SDS011;4734;52.778;6.798;2024-03-29T04:49:15;3.27;;;1.27;;
9388;SDS011;4734;52.778;6.798;2024-03-29T04:52:06;1.67;;;1.30;;
9388;SDS011;4734;52.778;6.798;2024-03-29T04:54:52;1.20;;;1.10;;
9388;SDS011;4734;52.778;6.798;2024-03-29T04:57:38;2.70;;;1.53;;
9388;SDS011;4734;52.778;6.798;2024-03-29T05:00:23;2.85;;;1.40;;
9388;SDS011;4734;52.778;6.798;2024-03-29T05:03:09;1.38;;;1.10;;
9388;SDS011;4734;52.778;6.798;2024-03-29T05:05:55;4.07;;;1.20;;
9388;SDS011;4734;52.778;6.798;2024-03-29T05:08:41;4.10;;;1.63;;
9388;SDS011;4734;52.778;6.798;2024-03-29T05:11:28;3.22;;;1.13;;
9388;SDS011;4734;52.778;6.798;2024-03-29T05:14:14;2.80;;;1.45;;
9388;SDS011;4734;52.778;6.798;2024-03-29T05:17:00;2.95;;;1.35;;
9388;SDS011;4734;52.778;6.798;2024-03-29T05:19:46;2.78;;;1.20;;
9388;SDS011;4734;52.778;6.798;2024-03-29T05:22:31;1.75;;;1.30;;
9388;SDS011;4734;52.778;6.798;2024-03-29T05:25:17;2.57;;;1.20;;
9388;SDS011;4734;52.778;6.798;2024-03-29T05:28:04;3.63;;;1.15;;
9388;SDS011;4734;52.778;6.798;2024-03-29T05:30:51;2.28;;;1.30;;
9388;SDS011;4734;52.778;6.798;2024-03-29T05:33:37;1.80;;;1.33;;
9388;SDS011;4734;52.778;6.798;2024-03-29T05:36:22;4.13;;;1.17;;
9388;SDS011;4734;52.778;6.798;2024-03-29T05:39:08;0.80;;;0.80;;
9388;SDS011;4734;52.778;6.798;2024-03-29T05:41:54;2.05;;;0.90;;
9388;SDS011;4734;52.778;6.798;2024-03-29T05:44:41;2.38;;;1.10;;
9388;SDS011;4734;52.778;6.798;2024-03-29T05:47:26;2.92;;;1.15;;
9388;SDS011;4734;52.778;6.798;2024-03-29T05:50:12;1.40;;;0.98;;
9388;SDS011;4734;52.778;6.798;2024-03-29T05:52:57;1.58;;;1.08;;
9388;SDS011;4734;52.778;6.798;2024-03-29T05:55:44;0.75;;;0.68;;
9388;SDS011;4734;52.778;6.798;2024-03-29T05:58:30;4.13;;;1.03;;
9388;SDS011;4734;52.778;6.798;2024-03-29T06:01:17;2.67;;;0.95;;
9388;SDS011;4734;52.778;6.798;2024-03-29T06:04:03;1.13;;;0.70;;
9388;SDS011;4734;52.778;6.798;2024-03-29T06:06:57;0.80;;;0.80;;
9388;SDS011;4734;52.778;6.798;2024-03-29T06:09:43;2.05;;;0.93;;
9388;SDS011;4734;52.778;6.798;2024-03-29T06:12:28;1.20;;;0.65;;
9388;SDS011;4734;52.778;6.798;2024-03-29T06:15:14;2.05;;;0.93;;
9388;SDS011;4734;52.778;6.798;2024-03-29T06:18:19;1.38;;;0.70;;
9388;SDS011;4734;52.778;6.798;2024-03-29T06:21:04;1.50;;;0.87;;
9388;SDS011;4734;52.778;6.798;2024-03-29T06:23:50;1.57;;;0.90;;
9388;SDS011;4734;52.778;6.798;2024-03-29T06:26:36;1.52;;;0.90;;
9388;SDS011;4734;52.778;6.798;2024-03-29T06:29:21;1.55;;;1.02;;
9388;SDS011;4734;52.778;6.798;2024-03-29T06:32:07;1.77;;;0.95;;
9388;SDS011;4734;52.778;6.798;2024-03-29T06:34:54;0.80;;;0.80;;
9388;SDS011;4734;52.778;6.798;2024-03-29T06:37:40;1.77;;;0.90;;
9388;SDS011;4734;52.778;6.798;2024-03-29T06:40:26;0.68;;;0.60;;
9388;SDS011;4734;52.778;6.798;2024-03-29T06:43:11;3.00;;;1.00;;
9388;SDS011;4734;52.778;6.798;2024-03-29T06:45:57;3.40;;;1.00;;
9388;SDS011;4734;52.778;6.798;2024-03-29T06:48:43;3.05;;;0.88;;
9388;SDS011;4734;52.778;6.798;2024-03-29T06:51:30;1.85;;;0.90;;
9388;SDS011;4734;52.778;6.798;2024-03-29T06:54:15;1.20;;;0.80;;
9388;SDS011;4734;52.778;6.798;2024-03-29T06:57:06;3.45;;;0.80;;
9388;SDS011;4734;52.778;6.798;2024-03-29T06:59:52;1.10;;;1.00;;
9388;SDS011;4734;52.778;6.798;2024-03-29T07:02:38;2.70;;;0.90;;
9388;SDS011;4734;52.778;6.798;2024-03-29T07:05:23;0.63;;;0.63;;
9388;SDS011;4734;52.778;6.798;2024-03-29T07:08:10;1.42;;;0.63;;
9388;SDS011;4734;52.778;6.798;2024-03-29T07:10:59;2.70;;;0.90;;
9388;SDS011;4734;52.778;6.798;2024-03-29T07:13:45;1.63;;;0.90;;
9388;SDS011;4734;52.778;6.798;2024-03-29T07:16:31;0.93;;;0.80;;
9388;SDS011;4734;52.778;6.798;2024-03-29T07:19:16;1.00;;;1.00;;
9388;SDS011;4734;52.778;6.798;2024-03-29T07:22:02;3.00;;;0.90;;
9388;SDS011;4734;52.778;6.798;2024-03-29T07:24:49;1.23;;;1.10;;
9388;SDS011;4734;52.778;6.798;2024-03-29T07:27:35;1.40;;;1.00;;
9388;SDS011;4734;52.778;6.798;2024-03-29T07:30:20;1.83;;;1.15;;
9388;SDS011;4734;52.778;6.798;2024-03-29T07:33:06;2.63;;;1.20;;
9388;SDS011;4734;52.778;6.798;2024-03-29T07:35:53;3.90;;;1.20;;
9388;SDS011;4734;52.778;6.798;2024-03-29T07:38:38;1.90;;;1.10;;
9388;SDS011;4734;52.778;6.798;2024-03-29T07:41:25;3.03;;;1.33;;
9388;SDS011;4734;52.778;6.798;2024-03-29T07:44:11;4.10;;;1.38;;
9388;SDS011;4734;52.778;6.798;2024-03-29T07:46:56;1.87;;;1.20;;
9388;SDS011;4734;52.778;6.798;2024-03-29T07:49:42;3.00;;;1.23;;
9388;SDS011;4734;52.778;6.798;2024-03-29T07:52:27;1.80;;;1.20;;
9388;SDS011;4734;52.778;6.798;2024-03-29T07:55:14;1.85;;;1.00;;
9388;SDS011;4734;52.778;6.798;2024-03-29T07:58:00;1.45;;;1.20;;
9388;SDS011;4734;52.778;6.798;2024-03-29T08:00:47;1.05;;;1.02;;
9388;SDS011;4734;52.778;6.798;2024-03-29T08:03:33;1.85;;;1.10;;
9388;SDS011;4734;52.778;6.798;2024-03-29T08:06:19;1.52;;;1.17;;
9388;SDS011;4734;52.778;6.798;2024-03-29T08:09:06;2.58;;;1.20;;
9388;SDS011;4734;52.778;6.798;2024-03-29T08:11:53;2.03;;;1.33;;
9388;SDS011;4734;52.778;6.798;2024-03-29T08:17:58;1.40;;;1.30;;
9388;SDS011;4734;52.778;6.798;2024-03-29T08:20:43;2.60;;;1.55;;
9388;SDS011;4734;52.778;6.798;2024-03-29T08:23:29;2.00;;;1.20;;
9388;SDS011;4734;52.778;6.798;2024-03-29T08:26:14;1.75;;;1.30;;
9388;SDS011;4734;52.778;6.798;2024-03-29T08:29:00;1.70;;;1.30;;
9388;SDS011;4734;52.778;6.798;2024-03-29T08:31:45;1.35;;;1.25;;
9388;SDS011;4734;52.778;6.798;2024-03-29T08:34:33;1.85;;;1.30;;
9388;SDS011;4734;52.778;6.798;2024-03-29T08:37:18;2.03;;;1.60;;
9388;SDS011;4734;52.778;6.798;2024-03-29T08:40:04;1.30;;;1.17;;
9388;SDS011;4734;52.778;6.798;2024-03-29T08:42:50;1.63;;;1.50;;
9388;SDS011;4734;52.778;6.798;2024-03-29T08:45:36;2.90;;;1.10;;
9388;SDS011;4734;52.778;6.798;2024-03-29T08:48:26;1.85;;;1.25;;
9388;SDS011;4734;52.778;6.798;2024-03-29T08:51:13;1.25;;;1.20;;
9388;SDS011;4734;52.778;6.798;2024-03-29T08:53:59;1.40;;;1.05;;
9388;SDS011;4734;52.778;6.798;2024-03-29T08:56:48;2.58;;;1.38;;
9388;SDS011;4734;52.778;6.798;2024-03-29T08:59:34;1.02;;;0.93;;
9388;SDS011;4734;52.778;6.798;2024-03-29T09:02:19;1.20;;;1.10;;
9388;SDS011;4734;52.778;6.798;2024-03-29T09:05:05;1.70;;;1.02;;
9388;SDS011;4734;52.778;6.798;2024-03-29T09:07:53;1.40;;;1.10;;
9388;SDS011;4734;52.778;6.798;2024-03-29T09:10:38;1.52;;;1.27;;
9388;SDS011;4734;52.778;6.798;2024-03-29T09:13:24;2.35;;;1.40;;
9388;SDS011;4734;52.778;6.798;2024-03-29T09:16:09;1.30;;;1.17;;
9388;SDS011;4734;52.778;6.798;2024-03-29T09:18:55;1.20;;;1.10;;
9388;SDS011;4734;52.778;6.798;2024-03-29T09:21:41;1.42;;;1.00;;
9388;SDS011;4734;52.778;6.798;2024-03-29T09:24:28;2.85;;;1.20;;
9388;SDS011;4734;52.778;6.798;2024-03-29T09:27:13;1.15;;;1.05;;
9388;SDS011;4734;52.778;6.798;2024-03-29T09:29:59;1.60;;;1.20;;
9388;SDS011;4734;52.778;6.798;2024-03-29T09:32:45;3.17;;;1.42;;
9388;SDS011;4734;52.778;6.798;2024-03-29T09:35:31;3.35;;;1.08;;
9388;SDS011;4734;52.778;6.798;2024-03-29T09:38:17;0.90;;;0.90;;
9388;SDS011;4734;52.778;6.798;2024-03-29T09:41:13;3.42;;;1.50;;
9388;SDS011;4734;52.778;6.798;2024-03-29T09:43:59;3.30;;;1.25;;
9388;SDS011;4734;52.778;6.798;2024-03-29T09:46:48;2.17;;;1.30;;
9388;SDS011;4734;52.778;6.798;2024-03-29T09:49:35;4.22;;;1.05;;
9388;SDS011;4734;52.778;6.798;2024-03-29T09:52:21;1.58;;;0.98;;
9388;SDS011;4734;52.778;6.798;2024-03-29T09:55:07;2.30;;;1.40;;
9388;SDS011;4734;52.778;6.798;2024-03-29T09:57:55;1.83;;;1.33;;
9388;SDS011;4734;52.778;6.798;2024-03-29T10:00:41;1.42;;;1.27;;
9388;SDS011;4734;52.778;6.798;2024-03-29T10:03:27;1.67;;;1.40;;
9388;SDS011;4734;52.778;6.798;2024-03-29T10:06:15;2.40;;;1.50;;
9388;SDS011;4734;52.778;6.798;2024-03-29T10:09:03;2.03;;;1.27;;
9388;SDS011;4734;52.778;6.798;2024-03-29T10:11:49;1.40;;;1.08;;
9388;SDS011;4734;52.778;6.798;2024-03-29T10:14:44;2.25;;;1.23;;
9388;SDS011;4734;52.778;6.798;2024-03-29T10:17:32;1.95;;;1.48;;
9388;SDS011;4734;52.778;6.798;2024-03-29T10:20:18;3.25;;;1.40;;
9388;SDS011;4734;52.778;6.798;2024-03-29T10:23:06;3.58;;;1.25;;
9388;SDS011;4734;52.778;6.798;2024-03-29T10:25:52;1.70;;;1.45;;
9388;SDS011;4734;52.778;6.798;2024-03-29T10:28:38;1.42;;;1.30;;
9388;SDS011;4734;52.778;6.798;2024-03-29T10:31:25;1.73;;;1.33;;
9388;SDS011;4734;52.778;6.798;2024-03-29T10:34:11;1.90;;;1.30;;
9388;SDS011;4734;52.778;6.798;2024-03-29T10:36:56;1.83;;;1.15;;
9388;SDS011;4734;52.778;6.798;2024-03-29T10:39:42;3.95;;;1.17;;
9388;SDS011;4734;52.778;6.798;2024-03-29T10:42:27;2.80;;;1.20;;
9388;SDS011;4734;52.778;6.798;2024-03-29T10:45:16;2.60;;;1.45;;
9388;SDS011;4734;52.778;6.798;2024-03-29T10:48:05;1.80;;;1.15;;
9388;SDS011;4734;52.778;6.798;2024-03-29T10:50:53;2.45;;;1.67;;
9388;SDS011;4734;52.778;6.798;2024-03-29T10:53:41;2.00;;;1.80;;
9388;SDS011;4734;52.778;6.798;2024-03-29T10:56:28;1.92;;;1.73;;
9388;SDS011;4734;52.778;6.798;2024-03-29T10:59:18;4.68;;;1.75;;
9388;SDS011;4734;52.778;6.798;2024-03-29T11:02:12;1.90;;;1.80;;
9388;SDS011;4734;52.778;6.798;2024-03-29T11:05:09;2.40;;;1.98;;
9388;SDS011;4734;52.778;6.798;2024-03-29T11:07:57;3.15;;;2.10;;
9388;SDS011;4734;52.778;6.798;2024-03-29T11:10:45;4.03;;;2.33;;
9388;SDS011;4734;52.778;6.798;2024-03-29T11:13:36;2.72;;;1.92;;
9388;SDS011;4734;52.778;6.798;2024-03-29T11:16:31;3.63;;;2.10;;
9388;SDS011;4734;52.778;6.798;2024-03-29T11:19:17;2.85;;;2.35;;
9388;SDS011;4734;52.778;6.798;2024-03-29T11:22:04;1.83;;;1.73;;
9388;SDS011;4734;52.778;6.798;2024-03-29T11:24:50;2.85;;;2.03;;
9388;SDS011;4734;52.778;6.798;2024-03-29T11:27:36;2.20;;;2.00;;
9388;SDS011;4734;52.778;6.798;2024-03-29T11:30:22;2.72;;;2.05;;
9388;SDS011;4734;52.778;6.798;2024-03-29T11:33:07;2.47;;;2.28;;
9388;SDS011;4734;52.778;6.798;2024-03-29T11:35:53;3.35;;;2.10;;
9388;SDS011;4734;52.778;6.798;2024-03-29T11:38:40;2.72;;;2.53;;
9388;SDS011;4734;52.778;6.798;2024-03-29T11:41:26;2.40;;;2.20;;
9388;SDS011;4734;52.778;6.798;2024-03-29T11:44:13;2.47;;;2.28;;
9388;SDS011;4734;52.778;6.798;2024-03-29T11:46:59;2.30;;;2.10;;
9388;SDS011;4734;52.778;6.798;2024-03-29T11:49:55;4.45;;;2.40;;
9388;SDS011;4734;52.778;6.798;2024-03-29T11:52:41;2.40;;;2.10;;
9388;SDS011;4734;52.778;6.798;2024-03-29T11:55:28;2.72;;;2.20;;
9388;SDS011;4734;52.778;6.798;2024-03-29T11:58:14;3.17;;;2.33;;
9388;SDS011;4734;52.778;6.798;2024-03-29T12:01:01;2.85;;;2.38;;
9388;SDS011;4734;52.778;6.798;2024-03-29T12:03:48;3.33;;;2.70;;
9388;SDS011;4734;52.778;6.798;2024-03-29T12:06:47;2.50;;;2.30;;
9388;SDS011;4734;52.778;6.798;2024-03-29T12:12:35;2.60;;;2.40;;
9388;SDS011;4734;52.778;6.798;2024-03-29T12:15:23;2.92;;;2.13;;
9388;SDS011;4734;52.778;6.798;2024-03-29T12:18:08;2.55;;;2.00;;
9388;SDS011;4734;52.778;6.798;2024-03-29T12:20:55;2.58;;;2.10;;
9388;SDS011;4734;52.778;6.798;2024-03-29T12:23:46;2.20;;;2.10;;
9388;SDS011;4734;52.778;6.798;2024-03-29T12:26:32;3.13;;;2.00;;
9388;SDS011;4734;52.778;6.798;2024-03-29T12:29:20;3.03;;;1.83;;
9388;SDS011;4734;52.778;6.798;2024-03-29T12:32:06;2.00;;;1.88;;
9388;SDS011;4734;52.778;6.798;2024-03-29T12:34:52;2.67;;;2.35;;
9388;SDS011;4734;52.778;6.798;2024-03-29T12:37:46;2.75;;;2.28;;
9388;SDS011;4734;52.778;6.798;2024-03-29T12:40:32;2.47;;;2.20;;
9388;SDS011;4734;52.778;6.798;2024-03-29T12:43:21;1.92;;;1.80;;
9388;SDS011;4734;52.778;6.798;2024-03-29T12:46:09;3.05;;;1.92;;
9388;SDS011;4734;52.778;6.798;2024-03-29T12:48:58;2.08;;;1.85;;
9388;SDS011;4734;52.778;6.798;2024-03-29T12:51:44;2.10;;;1.90;;
9388;SDS011;4734;52.778;6.798;2024-03-29T12:54:29;2.03;;;1.83;;
9388;SDS011;4734;52.778;6.798;2024-03-29T12:57:15;2.00;;;1.90;;
9388;SDS011;4734;52.778;6.798;2024-03-29T13:00:00;2.08;;;1.98;;
9388;SDS011;4734;52.778;6.798;2024-03-29T13:02:48;3.25;;;2.10;;
9388;SDS011;4734;52.778;6.798;2024-03-29T13:05:34;2.40;;;2.30;;
9388;SDS011;4734;52.778;6.798;2024-03-29T13:08:24;2.60;;;2.40;;
9388;SDS011;4734;52.778;6.798;2024-03-29T13:11:09;2.08;;;1.98;;
9388;SDS011;4734;52.778;6.798;2024-03-29T13:13:55;2.58;;;1.48;;
9388;SDS011;4734;52.778;6.798;2024-03-29T13:16:41;1.17;;;1.17;;
9388;SDS011;4734;52.778;6.798;2024-03-29T13:19:28;1.40;;;1.30;;
9388;SDS011;4734;52.778;6.798;2024-03-29T13:22:13;2.58;;;1.40;;
9388;SDS011;4734;52.778;6.798;2024-03-29T13:24:59;2.42;;;1.45;;
9388;SDS011;4734;52.778;6.798;2024-03-29T13:27:45;1.40;;;1.30;;
9388;SDS011;4734;52.778;6.798;2024-03-29T13:30:32;2.35;;;1.52;;
9388;SDS011;4734;52.778;6.798;2024-03-29T13:33:20;1.40;;;1.38;;
9388;SDS011;4734;52.778;6.798;2024-03-29T13:36:08;1.73;;;1.40;;
9388;SDS011;4734;52.778;6.798;2024-03-29T13:38:54;1.83;;;1.45;;
9388;SDS011;4734;52.778;6.798;2024-03-29T13:41:42;1.52;;;1.42;;
9388;SDS011;4734;52.778;6.798;2024-03-29T13:44:28;2.95;;;1.92;;
9388;SDS011;4734;52.778;6.798;2024-03-29T13:47:13;1.77;;;1.67;;
9388;SDS011;4734;52.778;6.798;2024-03-29T13:50:00;1.73;;;1.60;;
9388;SDS011;4734;52.778;6.798;2024-03-29T13:52:46;2.47;;;1.70;;
9388;SDS011;4734;52.778;6.798;2024-03-29T13:55:32;3.00;;;1.70;;
9388;SDS011;4734;52.778;6.798;2024-03-29T13:58:17;2.60;;;1.67;;
9388;SDS011;4734;52.778;6.798;2024-03-29T14:01:03;1.73;;;1.50;;
9388;SDS011;4734;52.778;6.798;2024-03-29T14:03:49;1.50;;;1.40;;
9388;SDS011;4734;52.778;6.798;2024-03-29T14:06:36;1.33;;;1.20;;
9388;SDS011;4734;52.778;6.798;2024-03-29T14:09:23;1.50;;;1.40;;
9388;SDS011;4734;52.778;6.798;2024-03-29T14:12:09;1.30;;;1.20;;
9388;SDS011;4734;52.778;6.798;2024-03-29T14:14:55;1.23;;;1.13;;
9388;SDS011;4734;52.778;6.798;2024-03-29T14:17:40;1.42;;;1.33;;
9388;SDS011;4734;52.778;6.798;2024-03-29T14:20:26;2.35;;;1.27;;
9388;SDS011;4734;52.778;6.798;2024-03-29T14:23:13;1.00;;;1.00;;
9388;SDS011;4734;52.778;6.798;2024-03-29T14:26:03;1.33;;;1.23;;
9388;SDS011;4734;52.778;6.798;2024-03-29T14:28:49;1.50;;;1.40;;
9388;SDS011;4734;52.778;6.798;2024-03-29T14:31:34;1.20;;;1.20;;
9388;SDS011;4734;52.778;6.798;2024-03-29T14:34:21;1.23;;;1.00;;
9388;SDS011;4734;52.778;6.798;2024-03-29T14:37:06;2.08;;;1.20;;
9388;SDS011;4734;52.778;6.798;2024-03-29T14:39:56;2.20;;;1.33;;
9388;SDS011;4734;52.778;6.798;2024-03-29T14:42:43;1.42;;;1.30;;
9388;SDS011;4734;52.778;6.798;2024-03-29T14:45:30;1.60;;;1.40;;
9388;SDS011;4734;52.778;6.798;2024-03-29T14:48:16;1.70;;;1.27;;
9388;SDS011;4734;52.778;6.798;2024-03-29T14:51:02;1.48;;;1.35;;
9388;SDS011;4734;52.778;6.798;2024-03-29T14:53:47;3.20;;;1.50;;
9388;SDS011;4734;52.778;6.798;2024-03-29T14:56:33;1.52;;;1.30;;
9388;SDS011;4734;52.778;6.798;2024-03-29T14:59:20;1.27;;;1.27;;
9388;SDS011;4734;52.778;6.798;2024-03-29T15:02:06;1.80;;;1.30;;
9388;SDS011;4734;52.778;6.798;2024-03-29T15:04:51;1.20;;;1.10;;
9388;SDS011;4734;52.778;6.798;2024-03-29T15:07:38;1.67;;;1.00;;
9388;SDS011;4734;52.778;6.798;2024-03-29T15:10:24;2.25;;;1.50;;
9388;SDS011;4734;52.778;6.798;2024-03-29T15:13:09;1.85;;;1.27;;
9388;SDS011;4734;52.778;6.798;2024-03-29T15:15:56;3.40;;;1.27;;
9388;SDS011;4734;52.778;6.798;2024-03-29T15:18:42;1.20;;;1.10;;
9388;SDS011;4734;52.778;6.798;2024-03-29T15:21:28;1.52;;;1.20;;
9388;SDS011;4734;52.778;6.798;2024-03-29T15:24:15;1.10;;;1.10;;
9388;SDS011;4734;52.778;6.798;2024-03-29T15:27:00;1.10;;;1.10;;
9388;SDS011;4734;52.778;6.798;2024-03-29T15:29:46;3.60;;;1.10;;
9388;SDS011;4734;52.778;6.798;2024-03-29T15:32:32;1.15;;;1.10;;
9388;SDS011;4734;52.778;6.798;2024-03-29T15:35:19;1.25;;;1.20;;
9388;SDS011;4734;52.778;6.798;2024-03-29T15:38:05;1.10;;;1.00;;
9388;SDS011;4734;52.778;6.798;2024-03-29T15:40:55;4.25;;;1.25;;
9388;SDS011;4734;52.778;6.798;2024-03-29T15:43:40;2.50;;;1.02;;
9388;SDS011;4734;52.778;6.798;2024-03-29T15:46:26;1.58;;;1.08;;
9388;SDS011;4734;52.778;6.798;2024-03-29T15:49:13;1.20;;;1.13;;
9388;SDS011;4734;52.778;6.798;2024-03-29T15:51:59;0.90;;;0.90;;
9388;SDS011;4734;52.778;6.798;2024-03-29T15:54:44;1.30;;;1.20;;
9388;SDS011;4734;52.778;6.798;2024-03-29T15:57:30;1.17;;;1.10;;
9388;SDS011;4734;52.778;6.798;2024-03-29T16:00:16;1.42;;;1.30;;
9388;SDS011;4734;52.778;6.798;2024-03-29T16:03:02;1.52;;;1.20;;
9388;SDS011;4734;52.778;6.798;2024-03-29T16:05:49;1.02;;;1.02;;
9388;SDS011;4734;52.778;6.798;2024-03-29T16:08:36;1.15;;;1.05;;
9388;SDS011;4734;52.778;6.798;2024-03-29T16:11:22;1.00;;;1.00;;
9388;SDS011;4734;52.778;6.798;2024-03-29T16:14:08;1.20;;;0.98;;
9388;SDS011;4734;52.778;6.798;2024-03-29T16:16:54;1.00;;;1.00;;
9388;SDS011;4734;52.778;6.798;2024-03-29T16:19:39;1.10;;;1.00;;
9388;SDS011;4734;52.778;6.798;2024-03-29T16:22:25;0.90;;;0.90;;
9388;SDS011;4734;52.778;6.798;2024-03-29T16:25:11;1.15;;;1.15;;
9388;SDS011;4734;52.778;6.798;2024-03-29T16:27:56;0.98;;;0.98;;
9388;SDS011;4734;52.778;6.798;2024-03-29T16:30:41;1.20;;;1.00;;
9388;SDS011;4734;52.778;6.798;2024-03-29T16:33:26;0.93;;;0.93;;
9388;SDS011;4734;52.778;6.798;2024-03-29T16:36:12;0.88;;;0.88;;
9388;SDS011;4734;52.778;6.798;2024-03-29T16:38:58;0.90;;;0.90;;
9388;SDS011;4734;52.778;6.798;2024-03-29T16:41:43;1.40;;;1.20;;
9388;SDS011;4734;52.778;6.798;2024-03-29T16:44:29;1.25;;;0.90;;
9388;SDS011;4734;52.778;6.798;2024-03-29T16:47:15;1.15;;;1.15;;
9388;SDS011;4734;52.778;6.798;2024-03-29T16:50:00;1.27;;;1.17;;
9388;SDS011;4734;52.778;6.798;2024-03-29T16:52:45;1.15;;;1.10;;
9388;SDS011;4734;52.778;6.798;2024-03-29T16:55:31;1.85;;;1.23;;
9388;SDS011;4734;52.778;6.798;2024-03-29T16:58:18;3.03;;;1.30;;
9388;SDS011;4734;52.778;6.798;2024-03-29T17:01:03;1.27;;;1.17;;
9388;SDS011;4734;52.778;6.798;2024-03-29T17:03:48;1.35;;;1.20;;
9388;SDS011;4734;52.778;6.798;2024-03-29T17:06:33;1.20;;;1.10;;
9388;SDS011;4734;52.778;6.798;2024-03-29T17:09:33;2.67;;;1.10;;
9388;SDS011;4734;52.778;6.798;2024-03-29T17:12:19;1.30;;;1.20;;
9388;SDS011;4734;52.778;6.798;2024-03-29T17:15:05;1.33;;;1.02;;
9388;SDS011;4734;52.778;6.798;2024-03-29T17:17:50;0.95;;;0.95;;
9388;SDS011;4734;52.778;6.798;2024-03-29T17:20:35;1.10;;;1.00;;